sensor_id;sensor_type;location;lat;lon;timestamp;P1;durP1;ratioP1;P2;durP2;ratioP2
13388;SDS011;6764;53.250;10.410;2023-05-13T00:02:15;8.43;;;5.20;;
13388;SDS011;6764;53.250;10.410;2023-05-13T00:04:40;5.63;;;4.22;;
13388;SDS011;6764;53.250;10.410;2023-05-13T00:07:06;8.70;;;5.40;;
13388;SDS011;6764;53.250;10.410;2023-05-13T00:09:32;5.07;;;4.57;;
13388;SDS011;6764;53.250;10.410;2023-05-13T00:11:58;6.13;;;4.70;;
13388;SDS011;6764;53.250;10.410;2023-05-13T00:14:23;12.60;;;6.00;;
13388;SDS011;6764;53.250;10.410;2023-05-13T00:16:49;7.82;;;6.05;;
13388;SDS011;6764;53.250;10.410;2023-05-13T00:19:15;9.57;;;6.27;;
13388;SDS011;6764;53.250;10.410;2023-05-13T00:21:40;6.93;;;5.50;;
13388;SDS011;6764;53.250;10.410;2023-05-13T00:24:06;9.47;;;5.70;;
13388;SDS011;6764;53.250;10.410;2023-05-13T00:26:31;5.57;;;5.00;;
13388;SDS011;6764;53.250;10.410;2023-05-13T00:28:57;4.95;;;4.45;;
13388;SDS011;6764;53.250;10.410;2023-05-13T00:31:23;6.87;;;4.90;;
13388;SDS011;6764;53.250;10.410;2023-05-13T00:33:48;5.77;;;4.40;;
13388;SDS011;6764;53.250;10.410;2023-05-13T00:36:14;8.73;;;4.50;;
13388;SDS011;6764;53.250;10.410;2023-05-13T00:38:39;5.10;;;4.60;;
13388;SDS011;6764;53.250;10.410;2023-05-13T00:41:07;6.30;;;4.47;;
13388;SDS011;6764;53.250;10.410;2023-05-13T00:43:33;7.90;;;4.63;;
13388;SDS011;6764;53.250;10.410;2023-05-13T00:45:59;13.30;;;5.07;;
13388;SDS011;6764;53.250;10.410;2023-05-13T00:48:24;6.93;;;4.80;;
13388;SDS011;6764;53.250;10.410;2023-05-13T00:50:50;5.70;;;5.10;;
13388;SDS011;6764;53.250;10.410;2023-05-13T00:53:16;9.97;;;5.00;;
13388;SDS011;6764;53.250;10.410;2023-05-13T00:55:43;7.70;;;4.10;;
13388;SDS011;6764;53.250;10.410;2023-05-13T00:58:10;6.23;;;4.67;;
13388;SDS011;6764;53.250;10.410;2023-05-13T01:00:41;7.90;;;4.70;;
13388;SDS011;6764;53.250;10.410;2023-05-13T01:03:20;6.43;;;4.43;;
13388;SDS011;6764;53.250;10.410;2023-05-13T01:06:16;9.57;;;5.37;;
13388;SDS011;6764;53.250;10.410;2023-05-13T01:08:57;6.73;;;5.30;;
13388;SDS011;6764;53.250;10.410;2023-05-13T01:11:32;7.37;;;5.47;;
13388;SDS011;6764;53.250;10.410;2023-05-13T01:14:02;7.53;;;4.80;;
13388;SDS011;6764;53.250;10.410;2023-05-13T01:16:34;5.80;;;4.50;;
13388;SDS011;6764;53.250;10.410;2023-05-13T01:22:14;5.83;;;4.37;;
13388;SDS011;6764;53.250;10.410;2023-05-13T01:24:40;5.40;;;4.57;;
13388;SDS011;6764;53.250;10.410;2023-05-13T01:27:06;7.17;;;5.03;;
13388;SDS011;6764;53.250;10.410;2023-05-13T01:29:32;8.53;;;5.30;;
13388;SDS011;6764;53.250;10.410;2023-05-13T01:31:57;9.23;;;5.67;;
13388;SDS011;6764;53.250;10.410;2023-05-13T01:34:24;5.83;;;5.07;;
13388;SDS011;6764;53.250;10.410;2023-05-13T01:36:52;6.63;;;5.30;;
13388;SDS011;6764;53.250;10.410;2023-05-13T01:39:18;8.13;;;5.03;;
13388;SDS011;6764;53.250;10.410;2023-05-13T01:41:44;11.73;;;5.63;;
13388;SDS011;6764;53.250;10.410;2023-05-13T01:44:10;7.53;;;4.87;;
13388;SDS011;6764;53.250;10.410;2023-05-13T01:46:38;6.73;;;4.80;;
13388;SDS011;6764;53.250;10.410;2023-05-13T01:49:04;6.57;;;4.73;;
13388;SDS011;6764;53.250;10.410;2023-05-13T01:51:31;10.33;;;4.93;;
13388;SDS011;6764;53.250;10.410;2023-05-13T01:53:57;7.37;;;5.20;;
13388;SDS011;6764;53.250;10.410;2023-05-13T01:56:22;6.63;;;4.63;;
13388;SDS011;6764;53.250;10.410;2023-05-13T01:58:48;5.37;;;4.40;;
13388;SDS011;6764;53.250;10.410;2023-05-13T02:01:14;5.37;;;4.37;;
13388;SDS011;6764;53.250;10.410;2023-05-13T02:03:40;5.50;;;4.87;;
13388;SDS011;6764;53.250;10.410;2023-05-13T02:06:05;6.90;;;5.03;;
13388;SDS011;6764;53.250;10.410;2023-05-13T02:08:31;6.27;;;4.53;;
13388;SDS011;6764;53.250;10.410;2023-05-13T02:10:57;6.50;;;5.17;;
13388;SDS011;6764;53.250;10.410;2023-05-13T02:13:23;5.90;;;4.90;;
13388;SDS011;6764;53.250;10.410;2023-05-13T02:15:49;5.47;;;4.40;;
13388;SDS011;6764;53.250;10.410;2023-05-13T02:18:15;4.97;;;4.50;;
13388;SDS011;6764;53.250;10.410;2023-05-13T02:20:41;6.33;;;4.60;;
13388;SDS011;6764;53.250;10.410;2023-05-13T02:23:06;5.60;;;5.10;;
13388;SDS011;6764;53.250;10.410;2023-05-13T02:25:32;9.00;;;5.00;;
13388;SDS011;6764;53.250;10.410;2023-05-13T02:27:58;6.53;;;4.73;;
13388;SDS011;6764;53.250;10.410;2023-05-13T02:30:24;4.83;;;4.43;;
13388;SDS011;6764;53.250;10.410;2023-05-13T02:32:51;7.73;;;4.70;;
13388;SDS011;6764;53.250;10.410;2023-05-13T02:35:17;5.20;;;4.73;;
13388;SDS011;6764;53.250;10.410;2023-05-13T02:37:43;6.63;;;5.00;;
13388;SDS011;6764;53.250;10.410;2023-05-13T02:40:09;5.50;;;4.10;;
13388;SDS011;6764;53.250;10.410;2023-05-13T02:42:35;6.37;;;4.60;;
13388;SDS011;6764;53.250;10.410;2023-05-13T02:45:01;7.70;;;4.77;;
13388;SDS011;6764;53.250;10.410;2023-05-13T02:47:26;9.50;;;4.97;;
13388;SDS011;6764;53.250;10.410;2023-05-13T02:49:53;5.53;;;4.33;;
13388;SDS011;6764;53.250;10.410;2023-05-13T02:52:20;7.50;;;5.33;;
13388;SDS011;6764;53.250;10.410;2023-05-13T02:54:48;5.23;;;4.70;;
13388;SDS011;6764;53.250;10.410;2023-05-13T02:57:14;7.10;;;4.90;;
13388;SDS011;6764;53.250;10.410;2023-05-13T02:59:39;5.60;;;4.77;;
13388;SDS011;6764;53.250;10.410;2023-05-13T03:02:05;7.43;;;5.33;;
13388;SDS011;6764;53.250;10.410;2023-05-13T03:04:30;5.50;;;4.90;;
13388;SDS011;6764;53.250;10.410;2023-05-13T03:06:56;5.00;;;4.50;;
13388;SDS011;6764;53.250;10.410;2023-05-13T03:09:21;6.37;;;5.73;;
13388;SDS011;6764;53.250;10.410;2023-05-13T03:11:47;6.53;;;5.33;;
13388;SDS011;6764;53.250;10.410;2023-05-13T03:14:13;11.00;;;5.27;;
13388;SDS011;6764;53.250;10.410;2023-05-13T03:16:38;9.13;;;5.00;;
13388;SDS011;6764;53.250;10.410;2023-05-13T03:19:04;5.93;;;4.97;;
13388;SDS011;6764;53.250;10.410;2023-05-13T03:21:30;11.60;;;5.13;;
13388;SDS011;6764;53.250;10.410;2023-05-13T03:23:55;6.77;;;5.30;;
13388;SDS011;6764;53.250;10.410;2023-05-13T03:26:21;7.57;;;5.27;;
13388;SDS011;6764;53.250;10.410;2023-05-13T03:28:47;7.60;;;5.70;;
13388;SDS011;6764;53.250;10.410;2023-05-13T03:31:12;5.87;;;5.33;;
13388;SDS011;6764;53.250;10.410;2023-05-13T03:33:38;6.63;;;5.50;;
13388;SDS011;6764;53.250;10.410;2023-05-13T03:36:04;8.03;;;5.47;;
13388;SDS011;6764;53.250;10.410;2023-05-13T03:38:31;9.73;;;6.07;;
13388;SDS011;6764;53.250;10.410;2023-05-13T03:40:56;9.53;;;5.87;;
13388;SDS011;6764;53.250;10.410;2023-05-13T03:43:22;7.07;;;5.23;;
13388;SDS011;6764;53.250;10.410;2023-05-13T03:45:48;5.50;;;5.00;;
13388;SDS011;6764;53.250;10.410;2023-05-13T03:48:15;7.60;;;5.20;;
13388;SDS011;6764;53.250;10.410;2023-05-13T03:50:41;6.07;;;5.03;;
13388;SDS011;6764;53.250;10.410;2023-05-13T03:53:07;9.20;;;5.50;;
13388;SDS011;6764;53.250;10.410;2023-05-13T03:55:34;8.07;;;5.67;;
13388;SDS011;6764;53.250;10.410;2023-05-13T03:58:09;7.40;;;5.40;;
13388;SDS011;6764;53.250;10.410;2023-05-13T04:00:38;6.50;;;5.53;;
13388;SDS011;6764;53.250;10.410;2023-05-13T04:03:04;8.30;;;5.87;;
13388;SDS011;6764;53.250;10.410;2023-05-13T04:05:30;6.60;;;5.20;;
13388;SDS011;6764;53.250;10.410;2023-05-13T04:07:56;5.90;;;5.30;;
13388;SDS011;6764;53.250;10.410;2023-05-13T04:10:21;7.13;;;5.73;;
13388;SDS011;6764;53.250;10.410;2023-05-13T04:12:47;12.53;;;5.50;;
13388;SDS011;6764;53.250;10.410;2023-05-13T04:15:12;9.00;;;5.80;;
13388;SDS011;6764;53.250;10.410;2023-05-13T04:17:38;7.07;;;5.50;;
13388;SDS011;6764;53.250;10.410;2023-05-13T04:20:04;7.13;;;5.47;;
13388;SDS011;6764;53.250;10.410;2023-05-13T04:22:30;7.20;;;5.10;;
13388;SDS011;6764;53.250;10.410;2023-05-13T04:24:59;11.73;;;5.97;;
13388;SDS011;6764;53.250;10.410;2023-05-13T04:27:24;5.77;;;5.27;;
13388;SDS011;6764;53.250;10.410;2023-05-13T04:29:50;6.97;;;5.67;;
13388;SDS011;6764;53.250;10.410;2023-05-13T04:32:16;6.60;;;5.77;;
13388;SDS011;6764;53.250;10.410;2023-05-13T04:34:48;7.47;;;6.10;;
13388;SDS011;6764;53.250;10.410;2023-05-13T04:37:15;6.73;;;5.43;;
13388;SDS011;6764;53.250;10.410;2023-05-13T04:39:41;6.03;;;5.53;;
13388;SDS011;6764;53.250;10.410;2023-05-13T04:42:10;9.93;;;5.93;;
13388;SDS011;6764;53.250;10.410;2023-05-13T04:44:35;6.83;;;5.33;;
13388;SDS011;6764;53.250;10.410;2023-05-13T04:47:01;8.43;;;5.63;;
13388;SDS011;6764;53.250;10.410;2023-05-13T04:49:26;6.87;;;6.07;;
13388;SDS011;6764;53.250;10.410;2023-05-13T04:51:52;7.47;;;5.47;;
13388;SDS011;6764;53.250;10.410;2023-05-13T04:54:18;6.07;;;5.47;;
13388;SDS011;6764;53.250;10.410;2023-05-13T04:56:43;6.47;;;5.87;;
13388;SDS011;6764;53.250;10.410;2023-05-13T04:59:09;7.93;;;5.73;;
13388;SDS011;6764;53.250;10.410;2023-05-13T05:01:35;7.90;;;5.63;;
13388;SDS011;6764;53.250;10.410;2023-05-13T05:04:00;8.40;;;6.20;;
13388;SDS011;6764;53.250;10.410;2023-05-13T05:06:26;8.47;;;6.00;;
13388;SDS011;6764;53.250;10.410;2023-05-13T05:08:52;8.33;;;6.03;;
13388;SDS011;6764;53.250;10.410;2023-05-13T05:11:18;6.77;;;5.80;;
13388;SDS011;6764;53.250;10.410;2023-05-13T05:13:43;9.07;;;6.50;;
13388;SDS011;6764;53.250;10.410;2023-05-13T05:16:09;11.30;;;6.03;;
13388;SDS011;6764;53.250;10.410;2023-05-13T05:18:34;6.80;;;5.63;;
13388;SDS011;6764;53.250;10.410;2023-05-13T05:21:00;6.77;;;5.50;;
13388;SDS011;6764;53.250;10.410;2023-05-13T05:23:26;9.17;;;5.50;;
13388;SDS011;6764;53.250;10.410;2023-05-13T05:25:52;13.33;;;5.70;;
13388;SDS011;6764;53.250;10.410;2023-05-13T05:28:18;6.57;;;5.87;;
13388;SDS011;6764;53.250;10.410;2023-05-13T05:30:43;5.60;;;5.07;;
13388;SDS011;6764;53.250;10.410;2023-05-13T05:33:09;8.87;;;5.03;;
13388;SDS011;6764;53.250;10.410;2023-05-13T05:35:35;5.70;;;5.10;;
13388;SDS011;6764;53.250;10.410;2023-05-13T05:38:05;5.33;;;4.90;;
13388;SDS011;6764;53.250;10.410;2023-05-13T05:40:31;6.63;;;5.60;;
13388;SDS011;6764;53.250;10.410;2023-05-13T05:42:58;5.40;;;4.90;;
13388;SDS011;6764;53.250;10.410;2023-05-13T05:45:24;6.27;;;4.83;;
13388;SDS011;6764;53.250;10.410;2023-05-13T05:47:50;9.27;;;5.30;;
13388;SDS011;6764;53.250;10.410;2023-05-13T05:50:15;9.27;;;5.30;;
13388;SDS011;6764;53.250;10.410;2023-05-13T05:52:41;8.23;;;5.10;;
13388;SDS011;6764;53.250;10.410;2023-05-13T05:55:06;6.60;;;5.13;;
13388;SDS011;6764;53.250;10.410;2023-05-13T05:57:33;7.03;;;5.00;;
13388;SDS011;6764;53.250;10.410;2023-05-13T05:59:58;8.30;;;5.20;;
13388;SDS011;6764;53.250;10.410;2023-05-13T06:02:24;5.90;;;5.13;;
13388;SDS011;6764;53.250;10.410;2023-05-13T06:04:49;6.07;;;5.20;;
13388;SDS011;6764;53.250;10.410;2023-05-13T06:07:15;5.77;;;5.10;;
13388;SDS011;6764;53.250;10.410;2023-05-13T06:09:40;8.13;;;5.33;;
13388;SDS011;6764;53.250;10.410;2023-05-13T06:12:06;10.03;;;5.33;;
13388;SDS011;6764;53.250;10.410;2023-05-13T06:14:32;7.37;;;4.60;;
13388;SDS011;6764;53.250;10.410;2023-05-13T06:16:58;9.10;;;5.10;;
13388;SDS011;6764;53.250;10.410;2023-05-13T06:19:23;7.30;;;5.17;;
13388;SDS011;6764;53.250;10.410;2023-05-13T06:21:49;5.88;;;5.25;;
13388;SDS011;6764;53.250;10.410;2023-05-13T06:24:14;6.05;;;4.55;;
13388;SDS011;6764;53.250;10.410;2023-05-13T06:26:40;5.28;;;4.28;;
13388;SDS011;6764;53.250;10.410;2023-05-13T06:29:06;12.00;;;4.10;;
13388;SDS011;6764;53.250;10.410;2023-05-13T06:31:31;5.85;;;4.22;;
13388;SDS011;6764;53.250;10.410;2023-05-13T06:33:57;5.07;;;4.03;;
13388;SDS011;6764;53.250;10.410;2023-05-13T06:36:22;5.18;;;3.97;;
13388;SDS011;6764;53.250;10.410;2023-05-13T06:38:48;7.78;;;3.75;;
13388;SDS011;6764;53.250;10.410;2023-05-13T06:41:13;7.35;;;3.40;;
13388;SDS011;6764;53.250;10.410;2023-05-13T06:43:39;6.70;;;3.67;;
13388;SDS011;6764;53.250;10.410;2023-05-13T06:46:05;8.05;;;3.45;;
13388;SDS011;6764;53.250;10.410;2023-05-13T06:48:30;6.45;;;3.50;;
13388;SDS011;6764;53.250;10.410;2023-05-13T06:50:56;9.13;;;3.85;;
13388;SDS011;6764;53.250;10.410;2023-05-13T06:53:22;6.35;;;3.33;;
13388;SDS011;6764;53.250;10.410;2023-05-13T06:55:47;5.15;;;3.80;;
13388;SDS011;6764;53.250;10.410;2023-05-13T06:58:13;5.78;;;3.90;;
13388;SDS011;6764;53.250;10.410;2023-05-13T07:00:41;4.72;;;3.25;;
13388;SDS011;6764;53.250;10.410;2023-05-13T07:03:07;7.22;;;3.40;;
13388;SDS011;6764;53.250;10.410;2023-05-13T07:05:33;6.40;;;3.70;;
13388;SDS011;6764;53.250;10.410;2023-05-13T07:07:58;9.05;;;3.97;;
13388;SDS011;6764;53.250;10.410;2023-05-13T07:10:25;5.75;;;3.58;;
13388;SDS011;6764;53.250;10.410;2023-05-13T07:12:51;7.32;;;3.40;;
13388;SDS011;6764;53.250;10.410;2023-05-13T07:15:16;5.25;;;3.30;;
13388;SDS011;6764;53.250;10.410;2023-05-13T07:17:42;6.18;;;3.03;;
13388;SDS011;6764;53.250;10.410;2023-05-13T07:20:08;6.20;;;3.10;;
13388;SDS011;6764;53.250;10.410;2023-05-13T07:22:34;4.05;;;3.30;;
13388;SDS011;6764;53.250;10.410;2023-05-13T07:25:00;7.25;;;3.20;;
13388;SDS011;6764;53.250;10.410;2023-05-13T07:27:25;5.40;;;3.45;;
13388;SDS011;6764;53.250;10.410;2023-05-13T07:29:51;5.93;;;3.20;;
13388;SDS011;6764;53.250;10.410;2023-05-13T07:32:17;6.03;;;3.42;;
13388;SDS011;6764;53.250;10.410;2023-05-13T07:34:43;7.95;;;3.20;;
13388;SDS011;6764;53.250;10.410;2023-05-13T07:37:08;5.07;;;3.20;;
13388;SDS011;6764;53.250;10.410;2023-05-13T07:39:34;9.77;;;3.38;;
13388;SDS011;6764;53.250;10.410;2023-05-13T07:42:00;8.57;;;3.72;;
13388;SDS011;6764;53.250;10.410;2023-05-13T07:44:26;6.40;;;3.30;;
13388;SDS011;6764;53.250;10.410;2023-05-13T07:46:51;7.70;;;3.20;;
13388;SDS011;6764;53.250;10.410;2023-05-13T07:49:17;3.53;;;3.22;;
13388;SDS011;6764;53.250;10.410;2023-05-13T07:51:44;7.32;;;3.22;;
13388;SDS011;6764;53.250;10.410;2023-05-13T07:54:10;6.57;;;3.40;;
13388;SDS011;6764;53.250;10.410;2023-05-13T07:56:35;5.50;;;3.20;;
13388;SDS011;6764;53.250;10.410;2023-05-13T07:59:02;4.90;;;3.00;;
13388;SDS011;6764;53.250;10.410;2023-05-13T08:01:27;5.78;;;3.25;;
13388;SDS011;6764;53.250;10.410;2023-05-13T08:03:53;6.55;;;3.15;;
13388;SDS011;6764;53.250;10.410;2023-05-13T08:06:19;9.18;;;3.30;;
13388;SDS011;6764;53.250;10.410;2023-05-13T08:08:45;6.10;;;3.30;;
13388;SDS011;6764;53.250;10.410;2023-05-13T08:11:10;6.18;;;3.17;;
13388;SDS011;6764;53.250;10.410;2023-05-13T08:13:37;8.57;;;3.83;;
13388;SDS011;6764;53.250;10.410;2023-05-13T08:16:03;7.05;;;3.33;;
13388;SDS011;6764;53.250;10.410;2023-05-13T08:18:31;6.45;;;3.20;;
13388;SDS011;6764;53.250;10.410;2023-05-13T08:20:57;7.28;;;3.50;;
13388;SDS011;6764;53.250;10.410;2023-05-13T08:23:22;5.18;;;3.30;;
13388;SDS011;6764;53.250;10.410;2023-05-13T08:25:49;5.57;;;3.60;;
13388;SDS011;6764;53.250;10.410;2023-05-13T08:28:15;8.88;;;3.20;;
13388;SDS011;6764;53.250;10.410;2023-05-13T08:30:41;4.85;;;2.80;;
13388;SDS011;6764;53.250;10.410;2023-05-13T08:33:08;7.80;;;3.83;;
13388;SDS011;6764;53.250;10.410;2023-05-13T08:35:35;6.72;;;3.20;;
13388;SDS011;6764;53.250;10.410;2023-05-13T08:38:01;7.03;;;3.30;;
13388;SDS011;6764;53.250;10.410;2023-05-13T08:40:29;5.88;;;3.50;;
13388;SDS011;6764;53.250;10.410;2023-05-13T08:42:59;4.30;;;3.00;;
13388;SDS011;6764;53.250;10.410;2023-05-13T08:45:30;4.93;;;3.05;;
13388;SDS011;6764;53.250;10.410;2023-05-13T08:47:58;6.55;;;3.30;;
13388;SDS011;6764;53.250;10.410;2023-05-13T08:50:29;5.60;;;2.95;;
13388;SDS011;6764;53.250;10.410;2023-05-13T08:52:56;8.40;;;3.08;;
13388;SDS011;6764;53.250;10.410;2023-05-13T08:55:23;8.38;;;3.97;;
13388;SDS011;6764;53.250;10.410;2023-05-13T08:57:49;6.20;;;3.20;;
13388;SDS011;6764;53.250;10.410;2023-05-13T09:00:15;5.30;;;2.97;;
13388;SDS011;6764;53.250;10.410;2023-05-13T09:02:41;6.38;;;3.33;;
13388;SDS011;6764;53.250;10.410;2023-05-13T09:05:07;4.70;;;2.88;;
13388;SDS011;6764;53.250;10.410;2023-05-13T09:07:34;4.50;;;3.05;;
13388;SDS011;6764;53.250;10.410;2023-05-13T09:10:02;7.38;;;3.20;;
13388;SDS011;6764;53.250;10.410;2023-05-13T09:12:43;6.35;;;2.95;;
13388;SDS011;6764;53.250;10.410;2023-05-13T09:15:12;7.00;;;2.78;;
13388;SDS011;6764;53.250;10.410;2023-05-13T09:17:42;8.45;;;3.15;;
13388;SDS011;6764;53.250;10.410;2023-05-13T09:20:10;8.18;;;3.03;;
13388;SDS011;6764;53.250;10.410;2023-05-13T09:22:43;4.82;;;3.25;;
13388;SDS011;6764;53.250;10.410;2023-05-13T09:25:11;10.88;;;3.30;;
13388;SDS011;6764;53.250;10.410;2023-05-13T09:27:40;8.00;;;3.30;;
13388;SDS011;6764;53.250;10.410;2023-05-13T09:30:07;6.13;;;3.35;;
13388;SDS011;6764;53.250;10.410;2023-05-13T09:32:34;8.55;;;2.85;;
13388;SDS011;6764;53.250;10.410;2023-05-13T09:35:13;7.93;;;2.97;;
13388;SDS011;6764;53.250;10.410;2023-05-13T09:37:43;6.47;;;2.85;;
13388;SDS011;6764;53.250;10.410;2023-05-13T09:40:19;7.00;;;2.80;;
13388;SDS011;6764;53.250;10.410;2023-05-13T09:42:45;4.43;;;2.78;;
13388;SDS011;6764;53.250;10.410;2023-05-13T09:45:11;6.35;;;2.60;;
13388;SDS011;6764;53.250;10.410;2023-05-13T09:47:38;6.45;;;2.55;;
13388;SDS011;6764;53.250;10.410;2023-05-13T09:50:05;5.38;;;2.70;;
13388;SDS011;6764;53.250;10.410;2023-05-13T09:52:33;5.20;;;2.90;;
13388;SDS011;6764;53.250;10.410;2023-05-13T09:55:00;5.15;;;2.60;;
13388;SDS011;6764;53.250;10.410;2023-05-13T09:57:28;6.35;;;2.50;;
13388;SDS011;6764;53.250;10.410;2023-05-13T09:59:58;3.63;;;2.30;;
13388;SDS011;6764;53.250;10.410;2023-05-13T10:02:25;7.18;;;2.90;;
13388;SDS011;6764;53.250;10.410;2023-05-13T10:04:51;8.48;;;3.10;;
13388;SDS011;6764;53.250;10.410;2023-05-13T10:07:18;6.30;;;2.60;;
13388;SDS011;6764;53.250;10.410;2023-05-13T10:09:48;5.38;;;2.50;;
13388;SDS011;6764;53.250;10.410;2023-05-13T10:12:17;5.68;;;2.95;;
13388;SDS011;6764;53.250;10.410;2023-05-13T10:14:46;8.20;;;3.20;;
13388;SDS011;6764;53.250;10.410;2023-05-13T10:17:17;5.88;;;3.22;;
13388;SDS011;6764;53.250;10.410;2023-05-13T10:19:45;7.30;;;3.00;;
13388;SDS011;6764;53.250;10.410;2023-05-13T10:22:28;4.70;;;2.42;;
13388;SDS011;6764;53.250;10.410;2023-05-13T10:24:56;3.30;;;2.80;;
13388;SDS011;6764;53.250;10.410;2023-05-13T10:27:32;7.72;;;3.00;;
13388;SDS011;6764;53.250;10.410;2023-05-13T10:29:59;5.65;;;2.58;;
13388;SDS011;6764;53.250;10.410;2023-05-13T10:32:26;6.95;;;2.72;;
13388;SDS011;6764;53.250;10.410;2023-05-13T10:34:58;7.28;;;2.38;;
13388;SDS011;6764;53.250;10.410;2023-05-13T10:37:56;4.20;;;2.70;;
13388;SDS011;6764;53.250;10.410;2023-05-13T10:43:30;6.18;;;2.75;;
13388;SDS011;6764;53.250;10.410;2023-05-13T10:45:57;5.72;;;2.55;;
13388;SDS011;6764;53.250;10.410;2023-05-13T10:48:26;5.35;;;2.83;;
13388;SDS011;6764;53.250;10.410;2023-05-13T10:51:15;4.55;;;2.65;;
13388;SDS011;6764;53.250;10.410;2023-05-13T10:56:10;6.60;;;2.30;;
13388;SDS011;6764;53.250;10.410;2023-05-13T10:58:36;3.03;;;2.50;;
13388;SDS011;6764;53.250;10.410;2023-05-13T11:01:12;6.10;;;2.60;;
13388;SDS011;6764;53.250;10.410;2023-05-13T11:03:38;8.15;;;2.67;;
13388;SDS011;6764;53.250;10.410;2023-05-13T11:08:42;3.85;;;2.78;;
13388;SDS011;6764;53.250;10.410;2023-05-13T11:16:17;6.03;;;2.20;;
13388;SDS011;6764;53.250;10.410;2023-05-13T11:18:43;8.07;;;2.60;;
13388;SDS011;6764;53.250;10.410;2023-05-13T11:21:09;5.20;;;2.63;;
13388;SDS011;6764;53.250;10.410;2023-05-13T11:26:23;4.32;;;2.35;;
13388;SDS011;6764;53.250;10.410;2023-05-13T11:28:52;8.30;;;2.60;;
13388;SDS011;6764;53.250;10.410;2023-05-13T11:31:19;7.78;;;2.53;;
13388;SDS011;6764;53.250;10.410;2023-05-13T11:34:05;4.38;;;3.10;;
13388;SDS011;6764;53.250;10.410;2023-05-13T11:36:31;7.55;;;2.45;;
13388;SDS011;6764;53.250;10.410;2023-05-13T11:39:04;8.25;;;2.58;;
13388;SDS011;6764;53.250;10.410;2023-05-13T11:44:10;4.53;;;2.30;;
13388;SDS011;6764;53.250;10.410;2023-05-13T11:46:36;5.97;;;2.15;;
13388;SDS011;6764;53.250;10.410;2023-05-13T11:49:02;4.03;;;2.63;;
13388;SDS011;6764;53.250;10.410;2023-05-13T11:51:28;4.53;;;2.53;;
13388;SDS011;6764;53.250;10.410;2023-05-13T11:54:02;5.28;;;2.42;;
13388;SDS011;6764;53.250;10.410;2023-05-13T11:56:28;5.40;;;2.50;;
13388;SDS011;6764;53.250;10.410;2023-05-13T11:58:54;5.35;;;2.85;;
13388;SDS011;6764;53.250;10.410;2023-05-13T12:01:20;2.75;;;2.33;;
13388;SDS011;6764;53.250;10.410;2023-05-13T12:03:46;4.85;;;2.70;;
13388;SDS011;6764;53.250;10.410;2023-05-13T12:06:12;4.57;;;2.38;;
13388;SDS011;6764;53.250;10.410;2023-05-13T12:08:43;3.47;;;2.17;;
13388;SDS011;6764;53.250;10.410;2023-05-13T12:11:10;9.00;;;2.92;;
13388;SDS011;6764;53.250;10.410;2023-05-13T12:13:40;4.97;;;2.70;;
13388;SDS011;6764;53.250;10.410;2023-05-13T12:16:06;8.75;;;3.78;;
13388;SDS011;6764;53.250;10.410;2023-05-13T12:18:32;4.13;;;2.70;;
13388;SDS011;6764;53.250;10.410;2023-05-13T12:20:58;6.70;;;2.20;;
13388;SDS011;6764;53.250;10.410;2023-05-13T12:23:24;5.00;;;2.47;;
13388;SDS011;6764;53.250;10.410;2023-05-13T12:25:49;3.80;;;2.53;;
13388;SDS011;6764;53.250;10.410;2023-05-13T12:28:16;4.10;;;2.60;;
13388;SDS011;6764;53.250;10.410;2023-05-13T12:31:01;7.07;;;2.97;;
13388;SDS011;6764;53.250;10.410;2023-05-13T12:33:30;3.75;;;2.50;;
13388;SDS011;6764;53.250;10.410;2023-05-13T12:38:57;4.57;;;2.25;;
13388;SDS011;6764;53.250;10.410;2023-05-13T12:41:29;6.72;;;2.97;;
13388;SDS011;6764;53.250;10.410;2023-05-13T12:44:12;3.72;;;2.33;;
13388;SDS011;6764;53.250;10.410;2023-05-13T12:46:48;3.88;;;2.60;;
13388;SDS011;6764;53.250;10.410;2023-05-13T12:49:15;5.60;;;2.40;;
13388;SDS011;6764;53.250;10.410;2023-05-13T12:51:40;4.68;;;2.50;;
13388;SDS011;6764;53.250;10.410;2023-05-13T12:54:06;9.25;;;3.08;;
13388;SDS011;6764;53.250;10.410;2023-05-13T12:56:31;5.78;;;2.78;;
13388;SDS011;6764;53.250;10.410;2023-05-13T12:58:57;4.88;;;2.50;;
13388;SDS011;6764;53.250;10.410;2023-05-13T13:01:23;8.57;;;2.63;;
13388;SDS011;6764;53.250;10.410;2023-05-13T13:03:49;3.42;;;2.60;;
13388;SDS011;6764;53.250;10.410;2023-05-13T13:06:14;8.32;;;2.90;;
13388;SDS011;6764;53.250;10.410;2023-05-13T13:08:42;4.20;;;2.75;;
13388;SDS011;6764;53.250;10.410;2023-05-13T13:11:08;6.90;;;2.35;;
13388;SDS011;6764;53.250;10.410;2023-05-13T13:13:33;2.33;;;2.08;;
13388;SDS011;6764;53.250;10.410;2023-05-13T13:15:59;5.20;;;2.72;;
13388;SDS011;6764;53.250;10.410;2023-05-13T13:18:25;4.68;;;2.35;;
13388;SDS011;6764;53.250;10.410;2023-05-13T13:20:51;4.28;;;2.60;;
13388;SDS011;6764;53.250;10.410;2023-05-13T13:23:17;4.78;;;2.20;;
13388;SDS011;6764;53.250;10.410;2023-05-13T13:25:43;6.30;;;2.88;;
13388;SDS011;6764;53.250;10.410;2023-05-13T13:28:09;9.43;;;2.33;;
13388;SDS011;6764;53.250;10.410;2023-05-13T13:30:35;7.40;;;2.47;;
13388;SDS011;6764;53.250;10.410;2023-05-13T13:33:01;6.03;;;2.42;;
13388;SDS011;6764;53.250;10.410;2023-05-13T13:35:26;4.03;;;2.33;;
13388;SDS011;6764;53.250;10.410;2023-05-13T13:37:52;3.65;;;2.60;;
13388;SDS011;6764;53.250;10.410;2023-05-13T13:40:18;3.85;;;2.55;;
13388;SDS011;6764;53.250;10.410;2023-05-13T13:42:44;3.20;;;2.58;;
13388;SDS011;6764;53.250;10.410;2023-05-13T13:45:10;6.50;;;2.60;;
13388;SDS011;6764;53.250;10.410;2023-05-13T13:47:39;2.42;;;2.17;;
13388;SDS011;6764;53.250;10.410;2023-05-13T13:50:05;3.00;;;2.70;;
13388;SDS011;6764;53.250;10.410;2023-05-13T13:52:31;3.20;;;2.63;;
13388;SDS011;6764;53.250;10.410;2023-05-13T13:54:56;3.20;;;2.53;;
13388;SDS011;6764;53.250;10.410;2023-05-13T13:57:22;8.75;;;2.50;;
13388;SDS011;6764;53.250;10.410;2023-05-13T13:59:48;3.13;;;2.47;;
13388;SDS011;6764;53.250;10.410;2023-05-13T14:02:13;5.22;;;2.80;;
13388;SDS011;6764;53.250;10.410;2023-05-13T14:04:39;3.95;;;2.40;;
13388;SDS011;6764;53.250;10.410;2023-05-13T14:07:04;3.17;;;2.40;;
13388;SDS011;6764;53.250;10.410;2023-05-13T14:09:30;15.02;;;3.38;;
13388;SDS011;6764;53.250;10.410;2023-05-13T14:11:56;7.47;;;2.55;;
13388;SDS011;6764;53.250;10.410;2023-05-13T14:14:22;2.38;;;2.10;;
13388;SDS011;6764;53.250;10.410;2023-05-13T14:16:48;3.22;;;2.67;;
13388;SDS011;6764;53.250;10.410;2023-05-13T14:19:14;3.80;;;2.45;;
13388;SDS011;6764;53.250;10.410;2023-05-13T14:21:42;2.75;;;2.20;;
13388;SDS011;6764;53.250;10.410;2023-05-13T14:24:09;3.85;;;2.20;;
13388;SDS011;6764;53.250;10.410;2023-05-13T14:26:36;5.18;;;2.47;;
13388;SDS011;6764;53.250;10.410;2023-05-13T14:29:01;2.92;;;2.17;;
13388;SDS011;6764;53.250;10.410;2023-05-13T14:31:27;7.10;;;2.40;;
13388;SDS011;6764;53.250;10.410;2023-05-13T14:33:53;6.10;;;2.72;;
13388;SDS011;6764;53.250;10.410;2023-05-13T14:36:20;3.58;;;2.70;;
13388;SDS011;6764;53.250;10.410;2023-05-13T14:38:46;2.60;;;2.40;;
13388;SDS011;6764;53.250;10.410;2023-05-13T14:41:12;4.57;;;3.28;;
13388;SDS011;6764;53.250;10.410;2023-05-13T14:43:44;3.40;;;2.35;;
13388;SDS011;6764;53.250;10.410;2023-05-13T14:46:10;6.43;;;2.55;;
13388;SDS011;6764;53.250;10.410;2023-05-13T14:48:36;5.90;;;2.70;;
13388;SDS011;6764;53.250;10.410;2023-05-13T14:51:02;5.85;;;3.10;;
13388;SDS011;6764;53.250;10.410;2023-05-13T14:53:27;5.85;;;2.70;;
13388;SDS011;6764;53.250;10.410;2023-05-13T14:55:53;5.57;;;2.90;;
13388;SDS011;6764;53.250;10.410;2023-05-13T14:58:19;6.30;;;3.10;;
13388;SDS011;6764;53.250;10.410;2023-05-13T15:00:44;10.35;;;4.15;;
13388;SDS011;6764;53.250;10.410;2023-05-13T15:03:10;7.40;;;2.60;;
13388;SDS011;6764;53.250;10.410;2023-05-13T15:05:36;7.00;;;2.90;;
13388;SDS011;6764;53.250;10.410;2023-05-13T15:08:01;4.20;;;3.00;;
13388;SDS011;6764;53.250;10.410;2023-05-13T15:10:27;3.65;;;2.88;;
13388;SDS011;6764;53.250;10.410;2023-05-13T15:12:53;10.98;;;3.95;;